Tholen, Netherlands
Current Conditions -  °F | °C
As of 7:59 AM on Tuesday 21 Oct 2014 (Local Time) from EHWO Reporting Station
Overcast Overcast  
Wind Chill: 55°   Ceiling: 1700
Heat Index: 55°   Visibility: 6mi
Dew Point: 50°   Wind: 15mph
Humidity: 82%   Direction: 210°SSW
Pressure: 29.71"   Gusts: NA
Location:  51.53°N, 4.22°E
Report Text: EHWO 210559Z AUTO 21013KT 9999 BKN017 BKN020 OVC037 13/10 Q1006 WHT 22015KT 9999 -RADZ FEW018 OVC040 BECMG 22015G25KT FEW010 BKN015 OVC025
Loading
Personal Weather Stations






























Interactive Weather Map
Tropical Storm Tracking
New forecast layout! Learn more

10-Day Weather Forecast

Advertisements
Track Severe Weather on mobile